sensor_id;sensor_type;location;lat;lon;timestamp;pressure;altitude;pressure_sealevel;temperature;humidity
72959;BME280;60008;50.826;6.896;2022-11-24T00:01:30;99978.81;;;6.52;100.00
72959;BME280;60008;50.826;6.896;2022-11-24T00:04:15;99976.03;;;6.54;100.00
72959;BME280;60008;50.826;6.896;2022-11-24T00:07:00;99979.94;;;6.50;100.00
72959;BME280;60008;50.826;6.896;2022-11-24T00:09:45;99976.56;;;6.57;100.00
72959;BME280;60008;50.826;6.896;2022-11-24T00:12:30;99974.59;;;6.59;100.00
72959;BME280;60008;50.826;6.896;2022-11-24T00:15:15;99977.94;;;6.70;100.00
72959;BME280;60008;50.826;6.896;2022-11-24T00:18:00;99976.06;;;6.88;100.00
72959;BME280;60008;50.826;6.896;2022-11-24T00:20:51;99965.94;;;6.93;100.00
72959;BME280;60008;50.826;6.896;2022-11-24T00:23:36;99956.88;;;6.95;100.00
72959;BME280;60008;50.826;6.896;2022-11-24T00:29:10;99966.22;;;6.90;100.00
72959;BME280;60008;50.826;6.896;2022-11-24T00:31:56;99971.16;;;6.85;100.00
72959;BME280;60008;50.826;6.896;2022-11-24T00:34:41;99961.19;;;7.04;100.00
72959;BME280;60008;50.826;6.896;2022-11-24T00:37:26;99963.81;;;7.04;100.00
72959;BME280;60008;50.826;6.896;2022-11-24T00:40:11;99963.75;;;6.88;100.00
72959;BME280;60008;50.826;6.896;2022-11-24T00:42:55;99952.41;;;7.30;100.00
72959;BME280;60008;50.826;6.896;2022-11-24T00:45:41;99953.00;;;7.57;100.00
72959;BME280;60008;50.826;6.896;2022-11-24T00:48:26;99955.28;;;7.44;100.00
72959;BME280;60008;50.826;6.896;2022-11-24T00:51:15;99954.28;;;7.45;100.00
72959;BME280;60008;50.826;6.896;2022-11-24T00:54:01;99958.13;;;7.67;100.00
72959;BME280;60008;50.826;6.896;2022-11-24T00:56:46;99946.94;;;7.65;100.00
72959;BME280;60008;50.826;6.896;2022-11-24T00:59:31;99962.94;;;7.71;100.00
72959;BME280;60008;50.826;6.896;2022-11-24T01:02:16;99964.25;;;7.67;100.00
72959;BME280;60008;50.826;6.896;2022-11-24T01:05:01;99978.56;;;7.65;100.00
72959;BME280;60008;50.826;6.896;2022-11-24T01:07:47;99974.44;;;7.62;100.00
72959;BME280;60008;50.826;6.896;2022-11-24T01:10:32;99978.28;;;7.76;100.00
72959;BME280;60008;50.826;6.896;2022-11-24T01:13:17;99984.16;;;7.62;100.00
72959;BME280;60008;50.826;6.896;2022-11-24T01:16:02;99984.13;;;7.54;100.00
72959;BME280;60008;50.826;6.896;2022-11-24T01:18:48;99994.84;;;7.44;100.00
72959;BME280;60008;50.826;6.896;2022-11-24T01:21:33;100003.88;;;7.42;100.00
72959;BME280;60008;50.826;6.896;2022-11-24T01:24:18;100000.94;;;7.53;100.00
72959;BME280;60008;50.826;6.896;2022-11-24T01:27:03;100003.13;;;7.57;100.00
72959;BME280;60008;50.826;6.896;2022-11-24T01:29:48;99995.19;;;7.57;100.00
72959;BME280;60008;50.826;6.896;2022-11-24T01:32:33;99996.19;;;7.56;100.00
72959;BME280;60008;50.826;6.896;2022-11-24T01:35:20;99996.84;;;7.58;100.00
72959;BME280;60008;50.826;6.896;2022-11-24T01:38:05;99999.00;;;7.55;100.00
72959;BME280;60008;50.826;6.896;2022-11-24T01:41:18;99998.78;;;7.48;100.00
72959;BME280;60008;50.826;6.896;2022-11-24T01:44:23;100012.91;;;7.39;100.00
72959;BME280;60008;50.826;6.896;2022-11-24T01:47:34;100018.34;;;7.38;100.00
72959;BME280;60008;50.826;6.896;2022-11-24T01:50:21;100015.19;;;7.34;100.00
72959;BME280;60008;50.826;6.896;2022-11-24T01:53:06;100018.13;;;7.31;100.00
72959;BME280;60008;50.826;6.896;2022-11-24T01:55:52;100023.38;;;7.23;100.00
72959;BME280;60008;50.826;6.896;2022-11-24T01:58:39;100021.88;;;7.20;100.00
72959;BME280;60008;50.826;6.896;2022-11-24T02:01:26;100020.16;;;7.03;100.00
72959;BME280;60008;50.826;6.896;2022-11-24T02:04:16;100032.69;;;6.84;100.00
72959;BME280;60008;50.826;6.896;2022-11-24T02:07:04;100027.66;;;6.73;100.00
72959;BME280;60008;50.826;6.896;2022-11-24T02:09:53;100033.59;;;6.75;100.00
72959;BME280;60008;50.826;6.896;2022-11-24T02:12:43;100033.59;;;6.75;100.00
72959;BME280;60008;50.826;6.896;2022-11-24T02:15:28;100038.25;;;6.81;100.00
72959;BME280;60008;50.826;6.896;2022-11-24T02:18:13;100046.41;;;6.70;100.00
72959;BME280;60008;50.826;6.896;2022-11-24T02:20:59;100042.44;;;6.48;100.00
72959;BME280;60008;50.826;6.896;2022-11-24T02:26:46;100058.53;;;6.27;100.00
72959;BME280;60008;50.826;6.896;2022-11-24T02:29:32;100069.94;;;6.18;100.00
72959;BME280;60008;50.826;6.896;2022-11-24T02:32:18;100076.50;;;6.14;100.00
72959;BME280;60008;50.826;6.896;2022-11-24T02:35:05;100069.88;;;6.10;100.00
72959;BME280;60008;50.826;6.896;2022-11-24T02:37:50;100067.06;;;6.12;100.00
72959;BME280;60008;50.826;6.896;2022-11-24T02:40:36;100075.22;;;6.01;100.00
72959;BME280;60008;50.826;6.896;2022-11-24T02:43:21;100064.44;;;5.94;100.00
72959;BME280;60008;50.826;6.896;2022-11-24T02:46:07;100069.59;;;5.86;100.00
72959;BME280;60008;50.826;6.896;2022-11-24T02:48:54;100076.81;;;5.74;100.00
72959;BME280;60008;50.826;6.896;2022-11-24T02:51:39;100076.19;;;5.63;100.00
72959;BME280;60008;50.826;6.896;2022-11-24T02:54:24;100073.72;;;5.61;100.00
72959;BME280;60008;50.826;6.896;2022-11-24T02:57:09;100074.38;;;5.63;100.00
72959;BME280;60008;50.826;6.896;2022-11-24T02:59:55;100076.72;;;5.66;100.00
72959;BME280;60008;50.826;6.896;2022-11-24T03:02:40;100079.94;;;5.60;100.00
72959;BME280;60008;50.826;6.896;2022-11-24T03:05:25;100081.34;;;5.55;100.00
72959;BME280;60008;50.826;6.896;2022-11-24T03:08:10;100083.19;;;5.45;100.00
72959;BME280;60008;50.826;6.896;2022-11-24T03:10:56;100078.38;;;5.40;100.00
72959;BME280;60008;50.826;6.896;2022-11-24T03:13:41;100091.09;;;5.35;100.00
72959;BME280;60008;50.826;6.896;2022-11-24T03:16:26;100092.63;;;5.28;100.00
72959;BME280;60008;50.826;6.896;2022-11-24T03:19:11;100091.69;;;5.19;100.00
72959;BME280;60008;50.826;6.896;2022-11-24T03:21:56;100094.41;;;5.27;100.00
72959;BME280;60008;50.826;6.896;2022-11-24T03:24:41;100101.06;;;5.31;100.00
72959;BME280;60008;50.826;6.896;2022-11-24T03:27:26;100100.78;;;5.34;100.00
72959;BME280;60008;50.826;6.896;2022-11-24T03:30:12;100104.34;;;5.43;100.00
72959;BME280;60008;50.826;6.896;2022-11-24T03:32:57;100097.53;;;5.50;100.00
72959;BME280;60008;50.826;6.896;2022-11-24T03:35:42;100110.66;;;5.60;100.00
72959;BME280;60008;50.826;6.896;2022-11-24T03:38:27;100106.72;;;5.73;100.00
72959;BME280;60008;50.826;6.896;2022-11-24T03:41:12;100115.69;;;5.80;100.00
72959;BME280;60008;50.826;6.896;2022-11-24T03:43:58;100109.06;;;5.86;100.00
72959;BME280;60008;50.826;6.896;2022-11-24T03:46:43;100104.84;;;5.93;100.00
72959;BME280;60008;50.826;6.896;2022-11-24T03:49:28;100109.97;;;5.94;100.00
72959;BME280;60008;50.826;6.896;2022-11-24T03:52:12;100120.63;;;5.93;100.00
72959;BME280;60008;50.826;6.896;2022-11-24T03:54:57;100110.94;;;5.93;100.00
72959;BME280;60008;50.826;6.896;2022-11-24T03:57:42;100115.66;;;5.90;100.00
72959;BME280;60008;50.826;6.896;2022-11-24T04:00:27;100120.41;;;5.86;100.00
72959;BME280;60008;50.826;6.896;2022-11-24T04:03:12;100127.44;;;5.76;100.00
72959;BME280;60008;50.826;6.896;2022-11-24T04:05:57;100128.72;;;5.72;100.00
72959;BME280;60008;50.826;6.896;2022-11-24T04:08:43;100133.44;;;5.69;100.00
72959;BME280;60008;50.826;6.896;2022-11-24T04:11:28;100133.72;;;5.66;100.00
72959;BME280;60008;50.826;6.896;2022-11-24T04:14:31;100138.84;;;5.67;100.00
72959;BME280;60008;50.826;6.896;2022-11-24T04:17:17;100133.97;;;5.72;100.00
72959;BME280;60008;50.826;6.896;2022-11-24T04:20:03;100135.34;;;5.76;100.00
72959;BME280;60008;50.826;6.896;2022-11-24T04:22:49;100141.31;;;5.78;100.00
72959;BME280;60008;50.826;6.896;2022-11-24T04:25:36;100139.91;;;5.74;100.00
72959;BME280;60008;50.826;6.896;2022-11-24T04:28:21;100136.47;;;5.74;100.00
72959;BME280;60008;50.826;6.896;2022-11-24T04:31:06;100142.69;;;5.73;100.00
72959;BME280;60008;50.826;6.896;2022-11-24T04:33:51;100141.59;;;5.75;100.00
72959;BME280;60008;50.826;6.896;2022-11-24T04:36:36;100147.22;;;5.90;100.00
72959;BME280;60008;50.826;6.896;2022-11-24T04:39:21;100144.56;;;5.90;100.00
72959;BME280;60008;50.826;6.896;2022-11-24T04:42:12;100150.25;;;5.95;100.00
72959;BME280;60008;50.826;6.896;2022-11-24T04:44:57;100156.28;;;6.05;100.00
72959;BME280;60008;50.826;6.896;2022-11-24T04:47:42;100159.94;;;6.22;100.00
72959;BME280;60008;50.826;6.896;2022-11-24T04:50:27;100158.22;;;6.57;100.00
72959;BME280;60008;50.826;6.896;2022-11-24T04:53:12;100148.72;;;6.65;100.00
72959;BME280;60008;50.826;6.896;2022-11-24T04:55:57;100138.78;;;6.94;100.00
72959;BME280;60008;50.826;6.896;2022-11-24T04:58:42;100128.53;;;7.08;100.00
72959;BME280;60008;50.826;6.896;2022-11-24T05:01:27;100129.19;;;7.10;100.00
72959;BME280;60008;50.826;6.896;2022-11-24T05:04:14;100120.94;;;7.05;100.00
72959;BME280;60008;50.826;6.896;2022-11-24T05:06:59;100137.19;;;7.01;100.00
72959;BME280;60008;50.826;6.896;2022-11-24T05:09:45;100147.13;;;6.89;100.00
72959;BME280;60008;50.826;6.896;2022-11-24T05:12:53;100158.38;;;6.74;100.00
72959;BME280;60008;50.826;6.896;2022-11-24T05:15:40;100164.69;;;6.63;100.00
72959;BME280;60008;50.826;6.896;2022-11-24T05:18:25;100182.69;;;6.58;100.00
72959;BME280;60008;50.826;6.896;2022-11-24T05:21:11;100174.00;;;6.93;100.00
72959;BME280;60008;50.826;6.896;2022-11-24T05:23:56;100176.63;;;7.10;100.00
72959;BME280;60008;50.826;6.896;2022-11-24T05:26:41;100177.63;;;6.92;100.00
72959;BME280;60008;50.826;6.896;2022-11-24T05:29:26;100171.94;;;7.04;100.00
72959;BME280;60008;50.826;6.896;2022-11-24T05:32:11;100176.50;;;7.12;100.00
72959;BME280;60008;50.826;6.896;2022-11-24T05:34:56;100178.72;;;7.25;100.00
72959;BME280;60008;50.826;6.896;2022-11-24T05:37:41;100185.50;;;7.53;100.00
72959;BME280;60008;50.826;6.896;2022-11-24T05:40:27;100187.03;;;7.55;100.00
72959;BME280;60008;50.826;6.896;2022-11-24T05:43:13;100188.88;;;7.63;100.00
72959;BME280;60008;50.826;6.896;2022-11-24T05:46:00;100197.41;;;7.57;100.00
72959;BME280;60008;50.826;6.896;2022-11-24T05:48:45;100202.69;;;7.57;100.00
72959;BME280;60008;50.826;6.896;2022-11-24T05:51:30;100215.19;;;7.55;100.00
72959;BME280;60008;50.826;6.896;2022-11-24T05:54:15;100225.94;;;7.61;100.00
72959;BME280;60008;50.826;6.896;2022-11-24T05:57:00;100237.31;;;7.62;100.00
72959;BME280;60008;50.826;6.896;2022-11-24T05:59:45;100235.16;;;7.57;100.00
72959;BME280;60008;50.826;6.896;2022-11-24T06:02:30;100249.31;;;7.56;100.00
72959;BME280;60008;50.826;6.896;2022-11-24T06:05:15;100247.19;;;7.60;100.00
72959;BME280;60008;50.826;6.896;2022-11-24T06:08:01;100235.00;;;7.59;100.00
72959;BME280;60008;50.826;6.896;2022-11-24T06:10:46;100240.88;;;7.53;100.00
72959;BME280;60008;50.826;6.896;2022-11-24T06:13:31;100239.53;;;7.49;100.00
72959;BME280;60008;50.826;6.896;2022-11-24T06:16:18;100247.91;;;7.44;100.00
72959;BME280;60008;50.826;6.896;2022-11-24T06:19:02;100257.75;;;7.42;100.00
72959;BME280;60008;50.826;6.896;2022-11-24T06:21:48;100258.06;;;7.39;100.00
72959;BME280;60008;50.826;6.896;2022-11-24T06:24:33;100262.59;;;7.29;100.00
72959;BME280;60008;50.826;6.896;2022-11-24T06:27:18;100272.28;;;7.29;100.00
72959;BME280;60008;50.826;6.896;2022-11-24T06:30:04;100281.88;;;7.30;100.00
72959;BME280;60008;50.826;6.896;2022-11-24T06:32:53;100282.16;;;7.27;100.00
72959;BME280;60008;50.826;6.896;2022-11-24T06:35:38;100287.06;;;7.22;100.00
72959;BME280;60008;50.826;6.896;2022-11-24T06:38:23;100286.69;;;7.16;100.00
72959;BME280;60008;50.826;6.896;2022-11-24T06:41:12;100289.16;;;7.18;100.00
72959;BME280;60008;50.826;6.896;2022-11-24T06:43:57;100291.06;;;7.08;100.00
72959;BME280;60008;50.826;6.896;2022-11-24T06:46:42;100297.59;;;7.04;100.00
72959;BME280;60008;50.826;6.896;2022-11-24T06:49:27;100305.91;;;7.09;100.00
72959;BME280;60008;50.826;6.896;2022-11-24T06:52:12;100313.88;;;7.17;100.00
72959;BME280;60008;50.826;6.896;2022-11-24T06:54:57;100307.63;;;7.18;100.00
72959;BME280;60008;50.826;6.896;2022-11-24T06:57:42;100311.09;;;7.18;100.00
72959;BME280;60008;50.826;6.896;2022-11-24T07:00:27;100315.53;;;7.18;100.00
72959;BME280;60008;50.826;6.896;2022-11-24T07:03:15;100310.94;;;7.20;100.00
72959;BME280;60008;50.826;6.896;2022-11-24T07:06:00;100318.69;;;7.22;100.00
72959;BME280;60008;50.826;6.896;2022-11-24T07:08:46;100321.03;;;7.25;100.00
72959;BME280;60008;50.826;6.896;2022-11-24T07:11:31;100315.53;;;7.18;100.00
72959;BME280;60008;50.826;6.896;2022-11-24T07:14:16;100325.38;;;7.16;100.00
72959;BME280;60008;50.826;6.896;2022-11-24T07:17:01;100324.41;;;7.17;100.00
72959;BME280;60008;50.826;6.896;2022-11-24T07:19:46;100327.66;;;7.11;100.00
72959;BME280;60008;50.826;6.896;2022-11-24T07:22:31;100337.56;;;6.99;100.00
72959;BME280;60008;50.826;6.896;2022-11-24T07:25:16;100348.84;;;6.92;100.00
72959;BME280;60008;50.826;6.896;2022-11-24T07:28:01;100350.91;;;6.88;100.00
72959;BME280;60008;50.826;6.896;2022-11-24T07:30:46;100358.00;;;6.88;100.00
72959;BME280;60008;50.826;6.896;2022-11-24T07:33:31;100360.50;;;6.89;100.00
72959;BME280;60008;50.826;6.896;2022-11-24T07:36:16;100376.28;;;6.89;100.00
72959;BME280;60008;50.826;6.896;2022-11-24T07:39:01;100370.25;;;6.79;100.00
72959;BME280;60008;50.826;6.896;2022-11-24T07:41:49;100382.00;;;6.85;100.00
72959;BME280;60008;50.826;6.896;2022-11-24T07:44:34;100375.75;;;6.86;100.00
72959;BME280;60008;50.826;6.896;2022-11-24T07:47:19;100379.66;;;6.82;100.00
72959;BME280;60008;50.826;6.896;2022-11-24T07:50:06;100375.66;;;6.78;100.00
72959;BME280;60008;50.826;6.896;2022-11-24T07:52:53;100388.72;;;6.70;100.00
72959;BME280;60008;50.826;6.896;2022-11-24T07:55:38;100395.03;;;6.77;100.00
72959;BME280;60008;50.826;6.896;2022-11-24T07:58:23;100405.16;;;6.81;100.00
72959;BME280;60008;50.826;6.896;2022-11-24T08:01:16;100410.09;;;6.94;100.00
72959;BME280;60008;50.826;6.896;2022-11-24T08:04:01;100402.06;;;6.95;100.00
72959;BME280;60008;50.826;6.896;2022-11-24T08:06:47;100408.69;;;6.99;100.00
72959;BME280;60008;50.826;6.896;2022-11-24T08:09:32;100407.84;;;6.99;100.00
72959;BME280;60008;50.826;6.896;2022-11-24T08:12:18;100420.44;;;7.05;100.00
72959;BME280;60008;50.826;6.896;2022-11-24T08:15:06;100418.00;;;7.21;100.00
72959;BME280;60008;50.826;6.896;2022-11-24T08:17:59;100424.75;;;7.33;100.00
72959;BME280;60008;50.826;6.896;2022-11-24T08:20:44;100421.91;;;7.44;100.00
72959;BME280;60008;50.826;6.896;2022-11-24T08:23:30;100428.41;;;7.50;100.00
72959;BME280;60008;50.826;6.896;2022-11-24T08:26:16;100423.59;;;7.63;100.00
72959;BME280;60008;50.826;6.896;2022-11-24T08:29:02;100432.72;;;7.86;100.00
72959;BME280;60008;50.826;6.896;2022-11-24T08:31:48;100436.78;;;7.80;100.00
72959;BME280;60008;50.826;6.896;2022-11-24T08:34:33;100427.13;;;7.89;100.00
72959;BME280;60008;50.826;6.896;2022-11-24T08:37:18;100440.94;;;8.01;100.00
72959;BME280;60008;50.826;6.896;2022-11-24T08:40:04;100443.19;;;8.13;100.00
72959;BME280;60008;50.826;6.896;2022-11-24T08:42:49;100434.75;;;8.27;100.00
72959;BME280;60008;50.826;6.896;2022-11-24T08:45:34;100441.47;;;8.40;100.00
72959;BME280;60008;50.826;6.896;2022-11-24T08:48:25;100441.91;;;8.35;100.00
72959;BME280;60008;50.826;6.896;2022-11-24T08:51:12;100442.56;;;8.37;100.00
72959;BME280;60008;50.826;6.896;2022-11-24T08:53:59;100447.59;;;8.48;100.00
72959;BME280;60008;50.826;6.896;2022-11-24T08:56:45;100450.72;;;8.44;100.00
72959;BME280;60008;50.826;6.896;2022-11-24T08:59:32;100453.66;;;8.41;100.00
72959;BME280;60008;50.826;6.896;2022-11-24T09:02:17;100471.72;;;8.27;100.00
72959;BME280;60008;50.826;6.896;2022-11-24T09:05:02;100474.63;;;8.24;100.00
72959;BME280;60008;50.826;6.896;2022-11-24T09:07:53;100466.03;;;8.40;100.00
72959;BME280;60008;50.826;6.896;2022-11-24T09:10:38;100468.00;;;8.38;100.00
72959;BME280;60008;50.826;6.896;2022-11-24T09:13:23;100468.66;;;8.40;100.00
72959;BME280;60008;50.826;6.896;2022-11-24T09:16:11;100472.75;;;8.52;100.00
72959;BME280;60008;50.826;6.896;2022-11-24T09:18:59;100483.91;;;8.46;100.00
72959;BME280;60008;50.826;6.896;2022-11-24T09:21:44;100478.44;;;8.65;100.00
72959;BME280;60008;50.826;6.896;2022-11-24T09:24:29;100487.56;;;8.96;100.00
72959;BME280;60008;50.826;6.896;2022-11-24T09:27:13;100482.59;;;8.93;100.00
72959;BME280;60008;50.826;6.896;2022-11-24T09:29:59;100489.06;;;8.99;100.00
72959;BME280;60008;50.826;6.896;2022-11-24T09:32:44;100502.53;;;9.14;100.00
72959;BME280;60008;50.826;6.896;2022-11-24T09:35:29;100496.56;;;9.12;100.00
72959;BME280;60008;50.826;6.896;2022-11-24T09:38:14;100503.47;;;9.38;100.00
72959;BME280;60008;50.826;6.896;2022-11-24T09:44:34;100521.88;;;9.98;100.00
72959;BME280;60008;50.826;6.896;2022-11-24T09:50:34;100523.38;;;9.50;100.00
72959;BME280;60008;50.826;6.896;2022-11-24T09:53:40;100522.41;;;9.59;100.00
72959;BME280;60008;50.826;6.896;2022-11-24T09:56:32;100522.69;;;9.48;100.00
72959;BME280;60008;50.826;6.896;2022-11-24T09:59:22;100523.25;;;9.68;100.00
72959;BME280;60008;50.826;6.896;2022-11-24T10:02:11;100525.56;;;9.63;100.00
72959;BME280;60008;50.826;6.896;2022-11-24T10:04:57;100522.78;;;9.65;100.00
72959;BME280;60008;50.826;6.896;2022-11-24T10:07:51;100531.25;;;9.84;100.00
72959;BME280;60008;50.826;6.896;2022-11-24T10:10:50;100524.50;;;9.98;100.00
72959;BME280;60008;50.826;6.896;2022-11-24T10:13:59;100530.00;;;10.04;100.00
72959;BME280;60008;50.826;6.896;2022-11-24T10:16:56;100530.25;;;10.19;100.00
72959;BME280;60008;50.826;6.896;2022-11-24T10:20:02;100532.22;;;10.57;100.00
72959;BME280;60008;50.826;6.896;2022-11-24T10:23:15;100532.41;;;10.64;100.00
72959;BME280;60008;50.826;6.896;2022-11-24T10:26:07;100537.38;;;10.59;100.00
72959;BME280;60008;50.826;6.896;2022-11-24T10:28:56;100541.66;;;10.44;100.00
72959;BME280;60008;50.826;6.896;2022-11-24T10:31:43;100535.72;;;10.74;100.00
72959;BME280;60008;50.826;6.896;2022-11-24T10:34:35;100540.50;;;11.03;100.00
72959;BME280;60008;50.826;6.896;2022-11-24T10:37:36;100534.22;;;10.71;100.00
72959;BME280;60008;50.826;6.896;2022-11-24T10:40:33;100548.50;;;10.62;100.00
72959;BME280;60008;50.826;6.896;2022-11-24T10:43:41;100552.78;;;10.80;100.00
72959;BME280;60008;50.826;6.896;2022-11-24T10:46:27;100545.97;;;10.93;100.00
72959;BME280;60008;50.826;6.896;2022-11-24T10:49:18;100556.88;;;11.06;100.00
72959;BME280;60008;50.826;6.896;2022-11-24T10:52:11;100559.50;;;11.39;100.00
72959;BME280;60008;50.826;6.896;2022-11-24T10:54:59;100550.13;;;10.80;100.00
72959;BME280;60008;50.826;6.896;2022-11-24T10:57:45;100553.28;;;10.91;100.00
72959;BME280;60008;50.826;6.896;2022-11-24T11:00:31;100547.13;;;10.83;100.00
72959;BME280;60008;50.826;6.896;2022-11-24T11:03:20;100556.13;;;11.45;100.00
72959;BME280;60008;50.826;6.896;2022-11-24T11:06:11;100563.41;;;11.59;100.00
72959;BME280;60008;50.826;6.896;2022-11-24T11:11:52;100558.38;;;11.17;100.00
72959;BME280;60008;50.826;6.896;2022-11-24T11:14:37;100549.28;;;11.11;100.00
72959;BME280;60008;50.826;6.896;2022-11-24T11:17:33;100559.72;;;11.05;100.00
72959;BME280;60008;50.826;6.896;2022-11-24T11:20:27;100566.16;;;11.26;100.00
72959;BME280;60008;50.826;6.896;2022-11-24T11:23:14;100569.47;;;11.20;100.00
72959;BME280;60008;50.826;6.896;2022-11-24T11:32:26;100577.06;;;11.40;100.00
72959;BME280;60008;50.826;6.896;2022-11-24T11:35:32;100572.44;;;11.17;100.00
72959;BME280;60008;50.826;6.896;2022-11-24T11:38:20;100571.78;;;11.15;100.00
72959;BME280;60008;50.826;6.896;2022-11-24T11:41:07;100577.31;;;11.69;100.00
72959;BME280;60008;50.826;6.896;2022-11-24T11:44:33;100576.41;;;11.29;100.00
72959;BME280;60008;50.826;6.896;2022-11-24T11:47:24;100582.41;;;11.23;100.00
72959;BME280;60008;50.826;6.896;2022-11-24T11:50:16;100578.09;;;11.14;100.00
72959;BME280;60008;50.826;6.896;2022-11-24T11:53:13;100587.56;;;11.17;100.00
72959;BME280;60008;50.826;6.896;2022-11-24T11:56:13;100584.41;;;11.21;100.00
72959;BME280;60008;50.826;6.896;2022-11-24T12:05:58;100590.22;;;11.17;100.00
72959;BME280;60008;50.826;6.896;2022-11-24T12:12:24;100588.69;;;11.22;100.00
72959;BME280;60008;50.826;6.896;2022-11-24T12:15:31;100591.34;;;11.30;100.00
72959;BME280;60008;50.826;6.896;2022-11-24T12:18:29;100587.00;;;11.38;100.00
72959;BME280;60008;50.826;6.896;2022-11-24T12:28:11;100587.16;;;11.44;100.00
72959;BME280;60008;50.826;6.896;2022-11-24T12:31:04;100591.00;;;11.33;100.00
72959;BME280;60008;50.826;6.896;2022-11-24T12:34:02;100584.19;;;11.39;100.00
72959;BME280;60008;50.826;6.896;2022-11-24T12:43:25;100573.19;;;11.50;100.00
72959;BME280;60008;50.826;6.896;2022-11-24T12:46:36;100575.03;;;11.42;100.00
72959;BME280;60008;50.826;6.896;2022-11-24T12:49:32;100568.78;;;11.34;100.00
72959;BME280;60008;50.826;6.896;2022-11-24T12:52:28;100566.44;;;11.40;100.00
72959;BME280;60008;50.826;6.896;2022-11-24T12:55:17;100562.94;;;11.39;100.00
72959;BME280;60008;50.826;6.896;2022-11-24T13:01:24;100555.47;;;11.43;100.00
72959;BME280;60008;50.826;6.896;2022-11-24T13:04:14;100564.81;;;11.39;100.00
72959;BME280;60008;50.826;6.896;2022-11-24T13:07:38;100570.09;;;11.39;100.00
72959;BME280;60008;50.826;6.896;2022-11-24T13:10:32;100576.03;;;11.57;100.00
72959;BME280;60008;50.826;6.896;2022-11-24T13:13:59;100585.31;;;11.45;100.00
72959;BME280;60008;50.826;6.896;2022-11-24T13:16:50;100578.88;;;11.39;100.00
72959;BME280;60008;50.826;6.896;2022-11-24T13:23:01;100583.34;;;11.55;100.00
72959;BME280;60008;50.826;6.896;2022-11-24T13:26:13;100584.50;;;11.52;100.00
72959;BME280;60008;50.826;6.896;2022-11-24T13:28:59;100591.28;;;11.55;100.00
72959;BME280;60008;50.826;6.896;2022-11-24T13:45:55;100609.69;;;11.56;100.00
72959;BME280;60008;50.826;6.896;2022-11-24T13:48:58;100601.44;;;11.43;100.00
72959;BME280;60008;50.826;6.896;2022-11-24T13:51:43;100603.53;;;11.64;100.00
72959;BME280;60008;50.826;6.896;2022-11-24T13:54:29;100603.09;;;11.52;100.00
72959;BME280;60008;50.826;6.896;2022-11-24T13:57:34;100601.09;;;11.46;100.00
72959;BME280;60008;50.826;6.896;2022-11-24T14:03:19;100599.78;;;11.26;100.00
72959;BME280;60008;50.826;6.896;2022-11-24T14:06:05;100601.28;;;11.36;100.00
72959;BME280;60008;50.826;6.896;2022-11-24T14:09:16;100606.13;;;11.25;100.00
72959;BME280;60008;50.826;6.896;2022-11-24T14:12:09;100600.16;;;11.15;100.00
72959;BME280;60008;50.826;6.896;2022-11-24T14:15:20;100600.34;;;11.05;100.00
72959;BME280;60008;50.826;6.896;2022-11-24T14:18:16;100599.69;;;11.03;100.00
72959;BME280;60008;50.826;6.896;2022-11-24T14:21:23;100601.66;;;11.01;100.00
72959;BME280;60008;50.826;6.896;2022-11-24T14:24:22;100600.66;;;11.02;100.00
72959;BME280;60008;50.826;6.896;2022-11-24T14:27:13;100596.53;;;10.92;100.00
72959;BME280;60008;50.826;6.896;2022-11-24T14:30:01;100600.66;;;10.86;100.00
72959;BME280;60008;50.826;6.896;2022-11-24T14:33:02;100598.16;;;10.76;100.00
72959;BME280;60008;50.826;6.896;2022-11-24T14:35:49;100593.69;;;10.69;100.00
72959;BME280;60008;50.826;6.896;2022-11-24T14:38:34;100598.34;;;10.59;100.00
72959;BME280;60008;50.826;6.896;2022-11-24T14:41:24;100596.84;;;10.56;100.00
72959;BME280;60008;50.826;6.896;2022-11-24T14:44:24;100597.81;;;10.55;100.00
72959;BME280;60008;50.826;6.896;2022-11-24T14:47:26;100599.97;;;10.52;100.00
72959;BME280;60008;50.826;6.896;2022-11-24T14:50:16;100597.81;;;10.47;100.00
72959;BME280;60008;50.826;6.896;2022-11-24T14:53:11;100602.44;;;10.45;100.00
72959;BME280;60008;50.826;6.896;2022-11-24T14:56:24;100597.47;;;10.34;100.00
72959;BME280;60008;50.826;6.896;2022-11-24T14:59:23;100599.25;;;10.26;100.00
72959;BME280;60008;50.826;6.896;2022-11-24T15:02:41;100605.19;;;10.20;100.00
72959;BME280;60008;50.826;6.896;2022-11-24T15:05:50;100607.13;;;10.09;100.00
72959;BME280;60008;50.826;6.896;2022-11-24T15:08:42;100614.06;;;10.02;100.00
72959;BME280;60008;50.826;6.896;2022-11-24T15:11:30;100623.59;;;9.87;100.00
72959;BME280;60008;50.826;6.896;2022-11-24T15:14:33;100630.38;;;9.90;100.00
72959;BME280;60008;50.826;6.896;2022-11-24T15:17:25;100621.91;;;9.78;100.00
72959;BME280;60008;50.826;6.896;2022-11-24T15:20:26;100636.56;;;9.65;100.00
72959;BME280;60008;50.826;6.896;2022-11-24T15:28:45;100648.94;;;9.13;100.00
72959;BME280;60008;50.826;6.896;2022-11-24T15:31:30;100636.25;;;9.42;100.00
72959;BME280;60008;50.826;6.896;2022-11-24T15:34:15;100633.69;;;9.32;100.00
72959;BME280;60008;50.826;6.896;2022-11-24T15:37:00;100627.25;;;9.35;100.00
72959;BME280;60008;50.826;6.896;2022-11-24T15:39:45;100630.69;;;9.27;100.00
72959;BME280;60008;50.826;6.896;2022-11-24T15:42:31;100634.78;;;9.22;100.00
72959;BME280;60008;50.826;6.896;2022-11-24T15:45:17;100634.09;;;9.20;100.00
72959;BME280;60008;50.826;6.896;2022-11-24T15:48:02;100635.41;;;9.16;100.00
72959;BME280;60008;50.826;6.896;2022-11-24T15:50:48;100638.00;;;9.08;100.00
72959;BME280;60008;50.826;6.896;2022-11-24T15:53:44;100635.84;;;9.11;100.00
72959;BME280;60008;50.826;6.896;2022-11-24T15:56:32;100639.50;;;9.10;100.00